Terminal Aerodrome Forecast
Issued by NWS

Home | Current Version | Previous Version | Text Only | Print | Product List | Glossary On
Versions: 1 2 3 4 5 6 7 8 9 10 11 12 13 14 15 16 17
000
FTUS43 KMPX 221700
TAFRNH
TAF
KRNH 221737Z 2218/2318 13012KT 1 1/2SM -RA BR OVC006
      TEMPO 2218/2222 3SM BR OVC009
     FM222200 11011KT 4SM -RA BR OVC009
     FM230300 08009KT 3SM -RASN BR OVC006
     FM230800 04012KT 1 1/2SM -SN BR OVC005=

USA.gov is the U.S. government's official web portal to all federal, state and local government web resources and services.